sensor_id;sensor_type;location;lat;lon;timestamp;P1;durP1;ratioP1;P2;durP2;ratioP2
69822;SDS011;57119;52.516;13.508;2022-11-15T00:00:24;70.57;;;26.27;;
69822;SDS011;57119;52.516;13.508;2022-11-15T00:02:51;62.75;;;25.58;;
69822;SDS011;57119;52.516;13.508;2022-11-15T00:05:17;62.03;;;25.20;;
69822;SDS011;57119;52.516;13.508;2022-11-15T00:07:43;69.72;;;27.73;;
69822;SDS011;57119;52.516;13.508;2022-11-15T00:10:08;70.60;;;28.00;;
69822;SDS011;57119;52.516;13.508;2022-11-15T00:12:34;67.53;;;26.70;;
69822;SDS011;57119;52.516;13.508;2022-11-15T00:14:59;71.05;;;26.52;;
69822;SDS011;57119;52.516;13.508;2022-11-15T00:17:25;69.03;;;28.17;;
69822;SDS011;57119;52.516;13.508;2022-11-15T00:19:50;74.50;;;28.60;;
69822;SDS011;57119;52.516;13.508;2022-11-15T00:22:16;66.00;;;25.83;;
69822;SDS011;57119;52.516;13.508;2022-11-15T00:24:41;68.27;;;26.67;;
69822;SDS011;57119;52.516;13.508;2022-11-15T00:27:07;69.18;;;27.05;;
69822;SDS011;57119;52.516;13.508;2022-11-15T00:29:33;64.95;;;25.55;;
69822;SDS011;57119;52.516;13.508;2022-11-15T00:31:58;59.73;;;25.17;;
69822;SDS011;57119;52.516;13.508;2022-11-15T00:34:23;55.53;;;24.27;;
69822;SDS011;57119;52.516;13.508;2022-11-15T00:36:49;63.77;;;26.93;;
69822;SDS011;57119;52.516;13.508;2022-11-15T00:39:14;69.33;;;27.93;;
69822;SDS011;57119;52.516;13.508;2022-11-15T00:41:40;72.30;;;28.50;;
69822;SDS011;57119;52.516;13.508;2022-11-15T00:44:05;71.70;;;27.87;;
69822;SDS011;57119;52.516;13.508;2022-11-15T00:46:30;77.57;;;27.17;;
69822;SDS011;57119;52.516;13.508;2022-11-15T00:48:56;72.27;;;27.70;;
69822;SDS011;57119;52.516;13.508;2022-11-15T00:51:21;67.17;;;27.47;;
69822;SDS011;57119;52.516;13.508;2022-11-15T00:53:47;82.07;;;28.07;;
69822;SDS011;57119;52.516;13.508;2022-11-15T00:56:12;67.75;;;26.85;;
69822;SDS011;57119;52.516;13.508;2022-11-15T00:58:37;62.37;;;25.77;;
69822;SDS011;57119;52.516;13.508;2022-11-15T01:01:07;66.17;;;27.43;;
69822;SDS011;57119;52.516;13.508;2022-11-15T01:03:34;65.60;;;25.35;;
69822;SDS011;57119;52.516;13.508;2022-11-15T01:06:00;64.82;;;25.70;;
69822;SDS011;57119;52.516;13.508;2022-11-15T01:08:26;67.37;;;25.70;;
69822;SDS011;57119;52.516;13.508;2022-11-15T01:10:51;68.30;;;26.37;;
69822;SDS011;57119;52.516;13.508;2022-11-15T01:13:16;61.97;;;26.43;;
69822;SDS011;57119;52.516;13.508;2022-11-15T01:15:42;63.47;;;24.53;;
69822;SDS011;57119;52.516;13.508;2022-11-15T01:18:08;60.63;;;24.95;;
69822;SDS011;57119;52.516;13.508;2022-11-15T01:20:33;56.33;;;23.03;;
69822;SDS011;57119;52.516;13.508;2022-11-15T01:22:59;59.87;;;24.63;;
69822;SDS011;57119;52.516;13.508;2022-11-15T01:25:24;55.10;;;23.30;;
69822;SDS011;57119;52.516;13.508;2022-11-15T01:27:49;62.80;;;24.13;;
69822;SDS011;57119;52.516;13.508;2022-11-15T01:30:15;62.30;;;26.00;;
69822;SDS011;57119;52.516;13.508;2022-11-15T01:32:40;50.43;;;23.70;;
69822;SDS011;57119;52.516;13.508;2022-11-15T01:35:05;65.13;;;25.90;;
69822;SDS011;57119;52.516;13.508;2022-11-15T01:37:31;74.45;;;27.88;;
69822;SDS011;57119;52.516;13.508;2022-11-15T01:39:57;74.33;;;27.13;;
69822;SDS011;57119;52.516;13.508;2022-11-15T01:42:22;62.00;;;24.73;;
69822;SDS011;57119;52.516;13.508;2022-11-15T01:44:48;60.03;;;25.33;;
69822;SDS011;57119;52.516;13.508;2022-11-15T01:49:59;57.90;;;23.50;;
69822;SDS011;57119;52.516;13.508;2022-11-15T01:52:28;55.15;;;23.50;;
69822;SDS011;57119;52.516;13.508;2022-11-15T01:55:06;66.78;;;25.90;;
69822;SDS011;57119;52.516;13.508;2022-11-15T01:57:32;68.80;;;26.50;;
69822;SDS011;57119;52.516;13.508;2022-11-15T01:59:59;57.53;;;23.87;;
69822;SDS011;57119;52.516;13.508;2022-11-15T02:02:26;61.33;;;24.20;;
69822;SDS011;57119;52.516;13.508;2022-11-15T02:04:52;63.67;;;24.25;;
69822;SDS011;57119;52.516;13.508;2022-11-15T02:07:18;60.47;;;24.00;;
69822;SDS011;57119;52.516;13.508;2022-11-15T02:09:45;56.95;;;21.98;;
69822;SDS011;57119;52.516;13.508;2022-11-15T02:12:12;55.38;;;24.33;;
69822;SDS011;57119;52.516;13.508;2022-11-15T02:14:42;54.70;;;24.40;;
69822;SDS011;57119;52.516;13.508;2022-11-15T02:39:46;53.08;;;21.58;;
69822;SDS011;57119;52.516;13.508;2022-11-15T02:42:26;49.55;;;21.48;;
69822;SDS011;57119;52.516;13.508;2022-11-15T02:45:27;54.25;;;22.48;;
69822;SDS011;57119;52.516;13.508;2022-11-15T02:47:58;48.97;;;21.10;;
69822;SDS011;57119;52.516;13.508;2022-11-15T02:50:27;49.08;;;22.92;;
69822;SDS011;57119;52.516;13.508;2022-11-15T02:52:54;49.28;;;21.90;;
69822;SDS011;57119;52.516;13.508;2022-11-15T02:55:31;53.72;;;22.88;;
69822;SDS011;57119;52.516;13.508;2022-11-15T03:00:44;49.10;;;22.87;;
69822;SDS011;57119;52.516;13.508;2022-11-15T03:11:19;52.15;;;22.13;;
69822;SDS011;57119;52.516;13.508;2022-11-15T03:19:12;52.35;;;22.38;;
69822;SDS011;57119;52.516;13.508;2022-11-15T03:21:42;54.30;;;22.70;;
69822;SDS011;57119;52.516;13.508;2022-11-15T03:24:09;48.95;;;22.33;;
69822;SDS011;57119;52.516;13.508;2022-11-15T03:26:37;52.60;;;21.83;;
69822;SDS011;57119;52.516;13.508;2022-11-15T03:29:10;50.10;;;22.27;;
69822;SDS011;57119;52.516;13.508;2022-11-15T03:31:42;53.67;;;23.35;;
69822;SDS011;57119;52.516;13.508;2022-11-15T03:34:16;48.97;;;21.50;;
69822;SDS011;57119;52.516;13.508;2022-11-15T03:36:54;52.08;;;21.88;;
69822;SDS011;57119;52.516;13.508;2022-11-15T03:39:20;51.80;;;21.17;;
69822;SDS011;57119;52.516;13.508;2022-11-15T03:41:48;54.85;;;22.92;;
69822;SDS011;57119;52.516;13.508;2022-11-15T03:44:24;53.47;;;23.40;;
69822;SDS011;57119;52.516;13.508;2022-11-15T03:47:01;57.85;;;23.98;;
69822;SDS011;57119;52.516;13.508;2022-11-15T03:49:33;49.92;;;22.23;;
69822;SDS011;57119;52.516;13.508;2022-11-15T03:52:01;56.33;;;25.17;;
69822;SDS011;57119;52.516;13.508;2022-11-15T03:54:28;49.38;;;21.50;;
69822;SDS011;57119;52.516;13.508;2022-11-15T03:56:54;56.10;;;22.57;;
69822;SDS011;57119;52.516;13.508;2022-11-15T03:59:19;55.65;;;23.95;;
69822;SDS011;57119;52.516;13.508;2022-11-15T04:01:45;57.03;;;24.00;;
69822;SDS011;57119;52.516;13.508;2022-11-15T04:04:10;56.67;;;23.57;;
69822;SDS011;57119;52.516;13.508;2022-11-15T04:06:36;60.80;;;22.45;;
69822;SDS011;57119;52.516;13.508;2022-11-15T04:09:01;57.73;;;23.93;;
69822;SDS011;57119;52.516;13.508;2022-11-15T04:11:27;56.97;;;22.63;;
69822;SDS011;57119;52.516;13.508;2022-11-15T04:13:52;56.13;;;23.77;;
69822;SDS011;57119;52.516;13.508;2022-11-15T04:16:18;56.07;;;23.03;;
69822;SDS011;57119;52.516;13.508;2022-11-15T04:18:43;56.47;;;23.57;;
69822;SDS011;57119;52.516;13.508;2022-11-15T04:21:09;53.13;;;23.43;;
69822;SDS011;57119;52.516;13.508;2022-11-15T04:23:53;53.92;;;22.23;;
69822;SDS011;57119;52.516;13.508;2022-11-15T04:26:37;56.80;;;23.15;;
69822;SDS011;57119;52.516;13.508;2022-11-15T04:29:02;55.77;;;21.87;;
69822;SDS011;57119;52.516;13.508;2022-11-15T04:31:46;52.22;;;23.15;;
69822;SDS011;57119;52.516;13.508;2022-11-15T04:34:11;51.47;;;22.17;;
69822;SDS011;57119;52.516;13.508;2022-11-15T04:36:37;54.10;;;22.73;;
69822;SDS011;57119;52.516;13.508;2022-11-15T04:39:20;57.78;;;23.42;;
69822;SDS011;57119;52.516;13.508;2022-11-15T04:41:45;63.20;;;24.73;;
69822;SDS011;57119;52.516;13.508;2022-11-15T04:44:11;56.70;;;22.83;;
69822;SDS011;57119;52.516;13.508;2022-11-15T04:46:36;57.17;;;23.73;;
69822;SDS011;57119;52.516;13.508;2022-11-15T04:49:01;54.67;;;23.30;;
69822;SDS011;57119;52.516;13.508;2022-11-15T04:51:27;58.13;;;23.65;;
69822;SDS011;57119;52.516;13.508;2022-11-15T04:53:52;58.83;;;23.77;;
69822;SDS011;57119;52.516;13.508;2022-11-15T04:56:18;60.30;;;23.53;;
69822;SDS011;57119;52.516;13.508;2022-11-15T04:58:43;53.53;;;22.90;;
69822;SDS011;57119;52.516;13.508;2022-11-15T05:01:09;64.17;;;25.03;;
69822;SDS011;57119;52.516;13.508;2022-11-15T05:03:37;55.28;;;23.02;;
69822;SDS011;57119;52.516;13.508;2022-11-15T05:06:35;57.92;;;23.65;;
69822;SDS011;57119;52.516;13.508;2022-11-15T05:09:00;57.67;;;22.70;;
69822;SDS011;57119;52.516;13.508;2022-11-15T05:11:25;57.40;;;23.47;;
69822;SDS011;57119;52.516;13.508;2022-11-15T05:13:52;53.92;;;21.90;;
69822;SDS011;57119;52.516;13.508;2022-11-15T05:16:18;54.80;;;22.65;;
69822;SDS011;57119;52.516;13.508;2022-11-15T05:18:43;59.47;;;22.67;;
69822;SDS011;57119;52.516;13.508;2022-11-15T05:21:10;52.23;;;22.87;;
69822;SDS011;57119;52.516;13.508;2022-11-15T05:23:37;54.40;;;22.20;;
69822;SDS011;57119;52.516;13.508;2022-11-15T05:26:03;52.47;;;21.20;;
69822;SDS011;57119;52.516;13.508;2022-11-15T05:28:30;50.88;;;21.48;;
69822;SDS011;57119;52.516;13.508;2022-11-15T05:31:02;51.05;;;22.45;;
69822;SDS011;57119;52.516;13.508;2022-11-15T05:33:29;51.83;;;22.05;;
69822;SDS011;57119;52.516;13.508;2022-11-15T05:35:57;52.92;;;21.58;;
69822;SDS011;57119;52.516;13.508;2022-11-15T05:38:27;50.63;;;22.07;;
69822;SDS011;57119;52.516;13.508;2022-11-15T05:40:53;50.85;;;21.15;;
69822;SDS011;57119;52.516;13.508;2022-11-15T05:43:19;53.97;;;23.92;;
69822;SDS011;57119;52.516;13.508;2022-11-15T05:45:50;56.60;;;23.97;;
69822;SDS011;57119;52.516;13.508;2022-11-15T05:48:21;58.33;;;23.67;;
69822;SDS011;57119;52.516;13.508;2022-11-15T05:50:47;56.30;;;25.00;;
69822;SDS011;57119;52.516;13.508;2022-11-15T05:53:13;52.53;;;22.83;;
69822;SDS011;57119;52.516;13.508;2022-11-15T05:55:41;54.83;;;24.07;;
69822;SDS011;57119;52.516;13.508;2022-11-15T05:58:06;54.45;;;22.50;;
69822;SDS011;57119;52.516;13.508;2022-11-15T06:00:32;54.83;;;22.53;;
69822;SDS011;57119;52.516;13.508;2022-11-15T06:02:57;51.45;;;22.80;;
69822;SDS011;57119;52.516;13.508;2022-11-15T06:05:23;52.17;;;23.83;;
69822;SDS011;57119;52.516;13.508;2022-11-15T06:07:48;51.50;;;21.97;;
69822;SDS011;57119;52.516;13.508;2022-11-15T06:10:14;59.03;;;24.83;;
69822;SDS011;57119;52.516;13.508;2022-11-15T06:12:39;51.72;;;23.45;;
69822;SDS011;57119;52.516;13.508;2022-11-15T06:15:05;55.03;;;22.87;;
69822;SDS011;57119;52.516;13.508;2022-11-15T06:17:31;50.72;;;21.70;;
69822;SDS011;57119;52.516;13.508;2022-11-15T06:19:56;54.47;;;21.93;;
69822;SDS011;57119;52.516;13.508;2022-11-15T06:22:21;54.03;;;21.53;;
69822;SDS011;57119;52.516;13.508;2022-11-15T06:24:47;48.63;;;22.17;;
69822;SDS011;57119;52.516;13.508;2022-11-15T06:27:12;47.80;;;21.73;;
69822;SDS011;57119;52.516;13.508;2022-11-15T06:29:37;62.57;;;24.00;;
69822;SDS011;57119;52.516;13.508;2022-11-15T06:32:03;58.97;;;23.83;;
69822;SDS011;57119;52.516;13.508;2022-11-15T06:34:29;73.37;;;26.23;;
69822;SDS011;57119;52.516;13.508;2022-11-15T06:36:54;71.43;;;26.23;;
69822;SDS011;57119;52.516;13.508;2022-11-15T06:39:19;69.90;;;24.47;;
69822;SDS011;57119;52.516;13.508;2022-11-15T06:41:45;73.82;;;27.15;;
69822;SDS011;57119;52.516;13.508;2022-11-15T06:44:10;73.07;;;27.80;;
69822;SDS011;57119;52.516;13.508;2022-11-15T06:46:36;77.10;;;26.23;;
69822;SDS011;57119;52.516;13.508;2022-11-15T06:49:01;80.10;;;27.93;;
69822;SDS011;57119;52.516;13.508;2022-11-15T06:51:26;77.30;;;27.90;;
69822;SDS011;57119;52.516;13.508;2022-11-15T06:53:52;73.43;;;27.27;;
69822;SDS011;57119;52.516;13.508;2022-11-15T06:56:17;65.77;;;26.33;;
69822;SDS011;57119;52.516;13.508;2022-11-15T06:58:43;71.60;;;26.57;;
69822;SDS011;57119;52.516;13.508;2022-11-15T07:01:09;72.50;;;25.43;;
69822;SDS011;57119;52.516;13.508;2022-11-15T07:03:36;75.68;;;27.73;;
69822;SDS011;57119;52.516;13.508;2022-11-15T07:06:03;73.63;;;27.75;;
69822;SDS011;57119;52.516;13.508;2022-11-15T07:08:29;77.27;;;27.93;;
69822;SDS011;57119;52.516;13.508;2022-11-15T07:10:57;67.60;;;27.63;;
69822;SDS011;57119;52.516;13.508;2022-11-15T07:13:25;59.75;;;25.88;;
69822;SDS011;57119;52.516;13.508;2022-11-15T07:15:51;64.23;;;24.60;;
69822;SDS011;57119;52.516;13.508;2022-11-15T07:18:17;69.82;;;26.75;;
69822;SDS011;57119;52.516;13.508;2022-11-15T07:20:42;62.47;;;26.07;;
69822;SDS011;57119;52.516;13.508;2022-11-15T07:23:08;63.57;;;25.17;;
69822;SDS011;57119;52.516;13.508;2022-11-15T07:25:33;66.17;;;27.33;;
69822;SDS011;57119;52.516;13.508;2022-11-15T07:27:59;59.78;;;25.42;;
69822;SDS011;57119;52.516;13.508;2022-11-15T07:30:25;64.55;;;25.73;;
69822;SDS011;57119;52.516;13.508;2022-11-15T07:32:55;64.00;;;27.23;;
69822;SDS011;57119;52.516;13.508;2022-11-15T07:35:21;63.70;;;27.63;;
69822;SDS011;57119;52.516;13.508;2022-11-15T07:37:56;57.42;;;25.45;;
69822;SDS011;57119;52.516;13.508;2022-11-15T07:40:23;63.87;;;25.03;;
69822;SDS011;57119;52.516;13.508;2022-11-15T07:42:49;57.65;;;26.63;;
69822;SDS011;57119;52.516;13.508;2022-11-15T07:45:18;50.67;;;24.02;;
69822;SDS011;57119;52.516;13.508;2022-11-15T07:47:48;51.05;;;23.90;;
69822;SDS011;57119;52.516;13.508;2022-11-15T07:50:14;48.28;;;25.83;;
69822;SDS011;57119;52.516;13.508;2022-11-15T07:52:40;46.37;;;23.13;;
69822;SDS011;57119;52.516;13.508;2022-11-15T07:55:06;49.60;;;23.63;;
69822;SDS011;57119;52.516;13.508;2022-11-15T07:57:32;45.00;;;22.57;;
69822;SDS011;57119;52.516;13.508;2022-11-15T07:59:57;42.15;;;21.88;;
69822;SDS011;57119;52.516;13.508;2022-11-15T08:02:22;40.37;;;20.57;;
69822;SDS011;57119;52.516;13.508;2022-11-15T08:04:48;39.10;;;21.17;;
69822;SDS011;57119;52.516;13.508;2022-11-15T08:07:13;37.83;;;20.63;;
69822;SDS011;57119;52.516;13.508;2022-11-15T08:09:38;35.20;;;20.20;;
69822;SDS011;57119;52.516;13.508;2022-11-15T08:12:04;32.73;;;18.60;;
69822;SDS011;57119;52.516;13.508;2022-11-15T08:14:30;30.52;;;18.55;;
69822;SDS011;57119;52.516;13.508;2022-11-15T08:16:55;32.23;;;18.50;;
69822;SDS011;57119;52.516;13.508;2022-11-15T08:19:21;32.93;;;19.30;;
69822;SDS011;57119;52.516;13.508;2022-11-15T08:21:46;32.93;;;19.40;;
69822;SDS011;57119;52.516;13.508;2022-11-15T08:24:11;29.30;;;18.27;;
69822;SDS011;57119;52.516;13.508;2022-11-15T08:26:37;33.20;;;18.83;;
69822;SDS011;57119;52.516;13.508;2022-11-15T08:29:03;30.48;;;19.67;;
69822;SDS011;57119;52.516;13.508;2022-11-15T08:31:28;30.17;;;19.90;;
69822;SDS011;57119;52.516;13.508;2022-11-15T08:33:54;29.23;;;18.23;;
69822;SDS011;57119;52.516;13.508;2022-11-15T08:36:19;28.17;;;17.90;;
69822;SDS011;57119;52.516;13.508;2022-11-15T08:38:45;30.37;;;18.60;;
69822;SDS011;57119;52.516;13.508;2022-11-15T08:41:14;27.38;;;18.55;;
69822;SDS011;57119;52.516;13.508;2022-11-15T08:43:48;30.13;;;18.23;;
69822;SDS011;57119;52.516;13.508;2022-11-15T08:46:14;27.13;;;18.65;;
69822;SDS011;57119;52.516;13.508;2022-11-15T08:48:39;26.90;;;17.97;;
69822;SDS011;57119;52.516;13.508;2022-11-15T08:51:05;29.23;;;19.87;;
69822;SDS011;57119;52.516;13.508;2022-11-15T08:53:30;29.98;;;19.17;;
69822;SDS011;57119;52.516;13.508;2022-11-15T08:55:56;29.97;;;20.23;;
69822;SDS011;57119;52.516;13.508;2022-11-15T08:58:21;25.77;;;18.43;;
69822;SDS011;57119;52.516;13.508;2022-11-15T09:00:47;27.57;;;18.53;;
69822;SDS011;57119;52.516;13.508;2022-11-15T09:03:12;29.48;;;18.88;;
69822;SDS011;57119;52.516;13.508;2022-11-15T09:05:37;25.40;;;17.87;;
69822;SDS011;57119;52.516;13.508;2022-11-15T09:08:03;26.97;;;18.37;;
69822;SDS011;57119;52.516;13.508;2022-11-15T09:10:28;28.27;;;19.55;;
69822;SDS011;57119;52.516;13.508;2022-11-15T09:12:56;27.57;;;17.70;;
69822;SDS011;57119;52.516;13.508;2022-11-15T09:15:22;28.45;;;18.95;;
69822;SDS011;57119;52.516;13.508;2022-11-15T09:17:47;26.90;;;19.60;;
69822;SDS011;57119;52.516;13.508;2022-11-15T09:20:12;28.57;;;19.37;;
69822;SDS011;57119;52.516;13.508;2022-11-15T09:22:38;25.58;;;18.45;;
69822;SDS011;57119;52.516;13.508;2022-11-15T09:25:04;27.87;;;19.23;;
69822;SDS011;57119;52.516;13.508;2022-11-15T09:27:30;28.40;;;19.35;;
69822;SDS011;57119;52.516;13.508;2022-11-15T09:29:55;28.27;;;19.10;;
69822;SDS011;57119;52.516;13.508;2022-11-15T09:32:20;28.13;;;20.20;;
69822;SDS011;57119;52.516;13.508;2022-11-15T09:34:48;25.60;;;18.83;;
69822;SDS011;57119;52.516;13.508;2022-11-15T09:37:13;26.60;;;18.70;;
69822;SDS011;57119;52.516;13.508;2022-11-15T09:39:38;25.95;;;18.77;;
69822;SDS011;57119;52.516;13.508;2022-11-15T09:45:13;29.93;;;19.70;;
69822;SDS011;57119;52.516;13.508;2022-11-15T09:53:05;27.60;;;20.02;;
69822;SDS011;57119;52.516;13.508;2022-11-15T09:56:10;22.38;;;18.08;;
69822;SDS011;57119;52.516;13.508;2022-11-15T09:58:34;27.60;;;18.30;;
69822;SDS011;57119;52.516;13.508;2022-11-15T10:01:10;23.25;;;17.65;;
69822;SDS011;57119;52.516;13.508;2022-11-15T10:03:43;23.10;;;17.15;;
69822;SDS011;57119;52.516;13.508;2022-11-15T10:06:15;21.88;;;16.67;;
69822;SDS011;57119;52.516;13.508;2022-11-15T10:11:30;25.17;;;17.90;;
69822;SDS011;57119;52.516;13.508;2022-11-15T10:13:59;25.30;;;17.38;;
69822;SDS011;57119;52.516;13.508;2022-11-15T10:22:04;21.95;;;16.42;;
69822;SDS011;57119;52.516;13.508;2022-11-15T10:24:39;22.73;;;17.07;;
69822;SDS011;57119;52.516;13.508;2022-11-15T10:27:09;21.35;;;16.55;;
69822;SDS011;57119;52.516;13.508;2022-11-15T10:29:40;21.27;;;16.10;;
69822;SDS011;57119;52.516;13.508;2022-11-15T10:32:09;20.25;;;15.57;;
69822;SDS011;57119;52.516;13.508;2022-11-15T10:34:36;22.40;;;16.15;;
69822;SDS011;57119;52.516;13.508;2022-11-15T10:37:02;20.17;;;15.40;;
69822;SDS011;57119;52.516;13.508;2022-11-15T10:39:27;20.80;;;15.20;;
69822;SDS011;57119;52.516;13.508;2022-11-15T10:41:53;19.77;;;14.38;;
69822;SDS011;57119;52.516;13.508;2022-11-15T10:44:21;21.48;;;15.55;;
69822;SDS011;57119;52.516;13.508;2022-11-15T10:49:25;24.10;;;16.30;;
69822;SDS011;57119;52.516;13.508;2022-11-15T10:57:13;21.42;;;15.70;;
69822;SDS011;57119;52.516;13.508;2022-11-15T10:59:48;18.27;;;15.60;;
69822;SDS011;57119;52.516;13.508;2022-11-15T11:05:00;20.13;;;15.60;;
69822;SDS011;57119;52.516;13.508;2022-11-15T11:07:27;20.20;;;13.95;;
69822;SDS011;57119;52.516;13.508;2022-11-15T11:10:02;20.58;;;14.27;;
69822;SDS011;57119;52.516;13.508;2022-11-15T11:12:29;19.77;;;14.25;;
69822;SDS011;57119;52.516;13.508;2022-11-15T11:14:57;18.87;;;14.37;;
69822;SDS011;57119;52.516;13.508;2022-11-15T11:17:32;18.42;;;13.27;;
69822;SDS011;57119;52.516;13.508;2022-11-15T11:44:36;16.48;;;12.98;;
69822;SDS011;57119;52.516;13.508;2022-11-15T11:47:23;18.33;;;12.88;;
69822;SDS011;57119;52.516;13.508;2022-11-15T11:49:55;16.30;;;12.65;;
69822;SDS011;57119;52.516;13.508;2022-11-15T11:52:26;17.95;;;13.07;;
69822;SDS011;57119;52.516;13.508;2022-11-15T12:00:18;16.52;;;12.88;;
69822;SDS011;57119;52.516;13.508;2022-11-15T12:02:47;15.90;;;12.85;;
69822;SDS011;57119;52.516;13.508;2022-11-15T12:05:40;16.90;;;14.38;;
69822;SDS011;57119;52.516;13.508;2022-11-15T12:08:29;16.73;;;13.63;;
69822;SDS011;57119;52.516;13.508;2022-11-15T12:11:12;15.77;;;12.43;;
69822;SDS011;57119;52.516;13.508;2022-11-15T12:13:42;15.38;;;11.93;;
69822;SDS011;57119;52.516;13.508;2022-11-15T12:16:13;16.00;;;12.05;;
69822;SDS011;57119;52.516;13.508;2022-11-15T12:18:50;16.48;;;13.15;;
69822;SDS011;57119;52.516;13.508;2022-11-15T12:23:59;14.68;;;12.13;;
69822;SDS011;57119;52.516;13.508;2022-11-15T12:26:31;16.95;;;13.48;;
69822;SDS011;57119;52.516;13.508;2022-11-15T12:29:12;17.50;;;12.90;;
69822;SDS011;57119;52.516;13.508;2022-11-15T12:31:48;16.17;;;12.75;;
69822;SDS011;57119;52.516;13.508;2022-11-15T12:36:48;17.77;;;13.45;;
69822;SDS011;57119;52.516;13.508;2022-11-15T12:39:15;16.65;;;13.75;;
69822;SDS011;57119;52.516;13.508;2022-11-15T12:41:43;17.40;;;12.40;;
69822;SDS011;57119;52.516;13.508;2022-11-15T13:02:20;13.98;;;11.50;;
69822;SDS011;57119;52.516;13.508;2022-11-15T13:04:48;13.70;;;11.13;;
69822;SDS011;57119;52.516;13.508;2022-11-15T13:10:00;17.35;;;10.52;;
69822;SDS011;57119;52.516;13.508;2022-11-15T13:17:46;15.53;;;10.37;;
69822;SDS011;57119;52.516;13.508;2022-11-15T13:20:23;14.45;;;10.80;;
69822;SDS011;57119;52.516;13.508;2022-11-15T13:28:01;14.38;;;10.10;;
69822;SDS011;57119;52.516;13.508;2022-11-15T13:30:39;17.58;;;10.45;;
69822;SDS011;57119;52.516;13.508;2022-11-15T13:33:08;15.90;;;10.90;;
69822;SDS011;57119;52.516;13.508;2022-11-15T13:35:53;15.20;;;10.27;;
69822;SDS011;57119;52.516;13.508;2022-11-15T13:40:49;19.38;;;10.82;;
69822;SDS011;57119;52.516;13.508;2022-11-15T13:48:45;16.85;;;9.32;;
69822;SDS011;57119;52.516;13.508;2022-11-15T13:51:17;16.33;;;10.63;;
69822;SDS011;57119;52.516;13.508;2022-11-15T13:53:55;15.45;;;9.23;;
69822;SDS011;57119;52.516;13.508;2022-11-15T13:56:24;15.68;;;9.07;;
69822;SDS011;57119;52.516;13.508;2022-11-15T13:58:53;15.25;;;9.73;;
69822;SDS011;57119;52.516;13.508;2022-11-15T14:01:20;19.63;;;9.77;;
69822;SDS011;57119;52.516;13.508;2022-11-15T14:03:48;16.87;;;9.97;;
69822;SDS011;57119;52.516;13.508;2022-11-15T14:06:17;16.00;;;9.63;;
69822;SDS011;57119;52.516;13.508;2022-11-15T14:11:52;37.10;;;20.70;;
69822;SDS011;57119;52.516;13.508;2022-11-15T14:14:22;15.93;;;9.93;;
69822;SDS011;57119;52.516;13.508;2022-11-15T14:16:52;19.27;;;10.50;;
69822;SDS011;57119;52.516;13.508;2022-11-15T14:24:34;16.90;;;9.63;;
69822;SDS011;57119;52.516;13.508;2022-11-15T14:29:45;17.63;;;9.73;;
69822;SDS011;57119;52.516;13.508;2022-11-15T14:32:57;19.50;;;9.40;;
69822;SDS011;57119;52.516;13.508;2022-11-15T14:35:10;17.65;;;9.38;;
69822;SDS011;57119;52.516;13.508;2022-11-15T14:37:41;17.03;;;10.10;;
69822;SDS011;57119;52.516;13.508;2022-11-15T14:40:08;17.73;;;10.27;;
69822;SDS011;57119;52.516;13.508;2022-11-15T14:42:36;19.08;;;9.80;;
69822;SDS011;57119;52.516;13.508;2022-11-15T14:45:02;19.30;;;10.83;;
69822;SDS011;57119;52.516;13.508;2022-11-15T14:47:27;18.40;;;10.53;;
69822;SDS011;57119;52.516;13.508;2022-11-15T14:49:52;22.87;;;13.43;;
69822;SDS011;57119;52.516;13.508;2022-11-15T14:52:28;22.30;;;12.60;;
69822;SDS011;57119;52.516;13.508;2022-11-15T14:54:59;20.20;;;12.07;;
69822;SDS011;57119;52.516;13.508;2022-11-15T14:57:27;21.85;;;12.13;;
69822;SDS011;57119;52.516;13.508;2022-11-15T14:59:55;20.27;;;11.88;;
69822;SDS011;57119;52.516;13.508;2022-11-15T15:02:24;24.20;;;11.43;;
69822;SDS011;57119;52.516;13.508;2022-11-15T15:04:52;21.50;;;11.88;;
69822;SDS011;57119;52.516;13.508;2022-11-15T15:07:18;22.03;;;11.93;;
69822;SDS011;57119;52.516;13.508;2022-11-15T15:09:44;21.77;;;12.32;;
69822;SDS011;57119;52.516;13.508;2022-11-15T15:12:21;21.77;;;12.07;;
69822;SDS011;57119;52.516;13.508;2022-11-15T15:14:48;21.73;;;12.15;;
69822;SDS011;57119;52.516;13.508;2022-11-15T15:17:17;19.73;;;10.60;;
69822;SDS011;57119;52.516;13.508;2022-11-15T15:19:43;19.13;;;11.30;;
69822;SDS011;57119;52.516;13.508;2022-11-15T15:22:11;20.97;;;11.80;;
69822;SDS011;57119;52.516;13.508;2022-11-15T15:24:39;24.25;;;12.73;;
69822;SDS011;57119;52.516;13.508;2022-11-15T15:27:08;19.63;;;11.63;;
69822;SDS011;57119;52.516;13.508;2022-11-15T15:29:34;21.23;;;13.03;;
69822;SDS011;57119;52.516;13.508;2022-11-15T15:31:59;23.30;;;13.83;;
69822;SDS011;57119;52.516;13.508;2022-11-15T15:34:25;22.00;;;12.90;;
69822;SDS011;57119;52.516;13.508;2022-11-15T15:37:05;26.53;;;14.27;;
69822;SDS011;57119;52.516;13.508;2022-11-15T15:39:52;21.35;;;13.68;;
69822;SDS011;57119;52.516;13.508;2022-11-15T15:42:18;24.08;;;13.15;;
69822;SDS011;57119;52.516;13.508;2022-11-15T15:44:45;25.27;;;12.43;;
69822;SDS011;57119;52.516;13.508;2022-11-15T15:47:11;23.90;;;13.18;;
69822;SDS011;57119;52.516;13.508;2022-11-15T15:49:38;23.93;;;12.90;;
69822;SDS011;57119;52.516;13.508;2022-11-15T15:52:04;21.55;;;13.18;;
69822;SDS011;57119;52.516;13.508;2022-11-15T15:54:29;23.00;;;13.07;;
69822;SDS011;57119;52.516;13.508;2022-11-15T15:56:54;26.67;;;15.20;;
69822;SDS011;57119;52.516;13.508;2022-11-15T15:59:20;25.37;;;13.73;;
69822;SDS011;57119;52.516;13.508;2022-11-15T16:01:45;33.85;;;14.70;;
69822;SDS011;57119;52.516;13.508;2022-11-15T16:04:11;27.30;;;12.80;;
69822;SDS011;57119;52.516;13.508;2022-11-15T16:06:39;25.07;;;12.80;;
69822;SDS011;57119;52.516;13.508;2022-11-15T16:09:10;21.52;;;11.90;;
69822;SDS011;57119;52.516;13.508;2022-11-15T16:11:38;21.00;;;11.77;;
69822;SDS011;57119;52.516;13.508;2022-11-15T16:14:03;21.77;;;12.07;;
69822;SDS011;57119;52.516;13.508;2022-11-15T16:16:29;22.73;;;12.03;;
69822;SDS011;57119;52.516;13.508;2022-11-15T16:18:54;22.20;;;11.87;;
69822;SDS011;57119;52.516;13.508;2022-11-15T16:21:20;26.23;;;14.80;;
69822;SDS011;57119;52.516;13.508;2022-11-15T16:23:45;26.08;;;15.13;;
69822;SDS011;57119;52.516;13.508;2022-11-15T16:26:14;29.00;;;15.87;;
69822;SDS011;57119;52.516;13.508;2022-11-15T16:28:45;30.95;;;17.30;;
69822;SDS011;57119;52.516;13.508;2022-11-15T16:31:11;31.13;;;16.97;;
69822;SDS011;57119;52.516;13.508;2022-11-15T16:33:37;37.10;;;19.08;;
69822;SDS011;57119;52.516;13.508;2022-11-15T16:36:18;36.73;;;20.30;;
69822;SDS011;57119;52.516;13.508;2022-11-15T16:38:44;36.70;;;20.75;;
69822;SDS011;57119;52.516;13.508;2022-11-15T16:41:09;38.00;;;20.07;;
69822;SDS011;57119;52.516;13.508;2022-11-15T16:43:35;36.35;;;20.83;;
69822;SDS011;57119;52.516;13.508;2022-11-15T16:46:02;39.93;;;22.10;;
69822;SDS011;57119;52.516;13.508;2022-11-15T16:48:33;45.33;;;23.50;;